sensor_id;sensor_type;location;lat;lon;timestamp;P1;durP1;ratioP1;P2;durP2;ratioP2
55134;SDS011;41031;44.750;11.308;2022-09-24T00:01:33;5.20;;;2.73;;
55134;SDS011;41031;44.750;11.308;2022-09-24T00:04:02;5.07;;;3.80;;
55134;SDS011;41031;44.750;11.308;2022-09-24T00:06:38;4.13;;;3.20;;
55134;SDS011;41031;44.750;11.308;2022-09-24T00:09:10;6.07;;;3.37;;
55134;SDS011;41031;44.750;11.308;2022-09-24T00:11:39;6.73;;;3.40;;
55134;SDS011;41031;44.750;11.308;2022-09-24T00:14:06;5.73;;;3.10;;
55134;SDS011;41031;44.750;11.308;2022-09-24T00:16:34;9.23;;;2.97;;
55134;SDS011;41031;44.750;11.308;2022-09-24T00:19:02;8.13;;;3.40;;
55134;SDS011;41031;44.750;11.308;2022-09-24T00:21:31;5.67;;;3.20;;
55134;SDS011;41031;44.750;11.308;2022-09-24T00:24:00;7.73;;;3.37;;
55134;SDS011;41031;44.750;11.308;2022-09-24T00:26:30;6.90;;;2.77;;
55134;SDS011;41031;44.750;11.308;2022-09-24T00:29:17;4.57;;;2.80;;
55134;SDS011;41031;44.750;11.308;2022-09-24T00:31:45;3.33;;;2.87;;
55134;SDS011;41031;44.750;11.308;2022-09-24T00:34:13;6.47;;;2.90;;
55134;SDS011;41031;44.750;11.308;2022-09-24T00:36:40;2.83;;;2.60;;
55134;SDS011;41031;44.750;11.308;2022-09-24T00:39:07;2.83;;;2.50;;
55134;SDS011;41031;44.750;11.308;2022-09-24T00:41:35;4.93;;;2.47;;
55134;SDS011;41031;44.750;11.308;2022-09-24T00:47:20;2.87;;;2.67;;
55134;SDS011;41031;44.750;11.308;2022-09-24T00:49:48;3.00;;;2.60;;
55134;SDS011;41031;44.750;11.308;2022-09-24T00:52:16;3.80;;;3.00;;
55134;SDS011;41031;44.750;11.308;2022-09-24T00:54:44;4.43;;;3.20;;
55134;SDS011;41031;44.750;11.308;2022-09-24T00:57:12;9.20;;;2.80;;
55134;SDS011;41031;44.750;11.308;2022-09-24T00:59:39;4.07;;;2.90;;
55134;SDS011;41031;44.750;11.308;2022-09-24T01:02:08;3.43;;;2.70;;
55134;SDS011;41031;44.750;11.308;2022-09-24T01:04:35;6.10;;;3.17;;
55134;SDS011;41031;44.750;11.308;2022-09-24T01:07:02;7.27;;;3.47;;
55134;SDS011;41031;44.750;11.308;2022-09-24T01:09:29;5.93;;;2.77;;
55134;SDS011;41031;44.750;11.308;2022-09-24T01:12:02;5.77;;;2.97;;
55134;SDS011;41031;44.750;11.308;2022-09-24T01:17:28;3.83;;;3.43;;
55134;SDS011;41031;44.750;11.308;2022-09-24T01:20:27;3.23;;;2.83;;
55134;SDS011;41031;44.750;11.308;2022-09-24T01:25:57;5.20;;;3.53;;
55134;SDS011;41031;44.750;11.308;2022-09-24T01:31:16;7.63;;;3.43;;
55134;SDS011;41031;44.750;11.308;2022-09-24T01:33:57;5.40;;;3.97;;
55134;SDS011;41031;44.750;11.308;2022-09-24T01:36:26;6.67;;;3.53;;
55134;SDS011;41031;44.750;11.308;2022-09-24T01:38:54;4.77;;;4.07;;
55134;SDS011;41031;44.750;11.308;2022-09-24T01:41:23;5.07;;;4.63;;
55134;SDS011;41031;44.750;11.308;2022-09-24T01:43:51;6.93;;;4.50;;
55134;SDS011;41031;44.750;11.308;2022-09-24T01:46:19;5.30;;;4.80;;
55134;SDS011;41031;44.750;11.308;2022-09-24T01:48:48;8.70;;;4.67;;
55134;SDS011;41031;44.750;11.308;2022-09-24T01:56:25;7.67;;;5.43;;
55134;SDS011;41031;44.750;11.308;2022-09-24T01:58:59;7.27;;;5.67;;
55134;SDS011;41031;44.750;11.308;2022-09-24T02:01:32;6.03;;;5.23;;
55134;SDS011;41031;44.750;11.308;2022-09-24T02:04:05;7.20;;;5.30;;
55134;SDS011;41031;44.750;11.308;2022-09-24T02:06:39;6.57;;;4.63;;
55134;SDS011;41031;44.750;11.308;2022-09-24T02:11:56;5.40;;;4.53;;
55134;SDS011;41031;44.750;11.308;2022-09-24T02:14:28;11.47;;;6.10;;
55134;SDS011;41031;44.750;11.308;2022-09-24T02:16:58;6.37;;;5.77;;
55134;SDS011;41031;44.750;11.308;2022-09-24T02:19:27;9.43;;;5.90;;
55134;SDS011;41031;44.750;11.308;2022-09-24T02:21:56;9.20;;;5.50;;
55134;SDS011;41031;44.750;11.308;2022-09-24T02:27:19;9.33;;;6.17;;
55134;SDS011;41031;44.750;11.308;2022-09-24T02:29:47;7.97;;;5.57;;
55134;SDS011;41031;44.750;11.308;2022-09-24T02:32:14;7.17;;;5.73;;
55134;SDS011;41031;44.750;11.308;2022-09-24T02:34:45;8.47;;;5.87;;
55134;SDS011;41031;44.750;11.308;2022-09-24T02:37:17;7.13;;;5.73;;
55134;SDS011;41031;44.750;11.308;2022-09-24T02:39:48;7.77;;;5.80;;
55134;SDS011;41031;44.750;11.308;2022-09-24T02:42:16;11.20;;;6.00;;
55134;SDS011;41031;44.750;11.308;2022-09-24T02:44:44;7.80;;;6.63;;
55134;SDS011;41031;44.750;11.308;2022-09-24T02:47:12;8.50;;;6.80;;
55134;SDS011;41031;44.750;11.308;2022-09-24T02:49:39;9.17;;;6.67;;
55134;SDS011;41031;44.750;11.308;2022-09-24T02:52:07;7.50;;;6.80;;
55134;SDS011;41031;44.750;11.308;2022-09-24T02:54:35;11.87;;;7.10;;
55134;SDS011;41031;44.750;11.308;2022-09-24T02:57:03;8.63;;;6.27;;
55134;SDS011;41031;44.750;11.308;2022-09-24T02:59:30;9.37;;;6.80;;
55134;SDS011;41031;44.750;11.308;2022-09-24T03:01:57;7.20;;;6.27;;
55134;SDS011;41031;44.750;11.308;2022-09-24T03:04:24;9.00;;;6.93;;
55134;SDS011;41031;44.750;11.308;2022-09-24T03:06:51;8.97;;;7.00;;
55134;SDS011;41031;44.750;11.308;2022-09-24T03:09:18;10.37;;;8.47;;
55134;SDS011;41031;44.750;11.308;2022-09-24T03:11:45;13.00;;;8.50;;
55134;SDS011;41031;44.750;11.308;2022-09-24T03:14:12;9.37;;;7.93;;
55134;SDS011;41031;44.750;11.308;2022-09-24T03:16:40;9.03;;;8.13;;
55134;SDS011;41031;44.750;11.308;2022-09-24T03:19:07;15.07;;;8.63;;
55134;SDS011;41031;44.750;11.308;2022-09-24T03:21:34;11.07;;;7.93;;
55134;SDS011;41031;44.750;11.308;2022-09-24T03:24:01;9.93;;;8.93;;
55134;SDS011;41031;44.750;11.308;2022-09-24T03:26:29;15.27;;;8.77;;
55134;SDS011;41031;44.750;11.308;2022-09-24T03:28:56;11.57;;;8.20;;
55134;SDS011;41031;44.750;11.308;2022-09-24T03:31:23;11.47;;;8.73;;
55134;SDS011;41031;44.750;11.308;2022-09-24T03:33:50;9.90;;;9.00;;
55134;SDS011;41031;44.750;11.308;2022-09-24T03:36:19;17.03;;;9.33;;
55134;SDS011;41031;44.750;11.308;2022-09-24T03:38:52;14.90;;;9.60;;
55134;SDS011;41031;44.750;11.308;2022-09-24T03:41:24;15.83;;;9.13;;
55134;SDS011;41031;44.750;11.308;2022-09-24T03:43:53;13.57;;;9.23;;
55134;SDS011;41031;44.750;11.308;2022-09-24T03:46:21;12.80;;;9.70;;
55134;SDS011;41031;44.750;11.308;2022-09-24T03:48:50;10.47;;;9.47;;
55134;SDS011;41031;44.750;11.308;2022-09-24T03:51:17;12.67;;;9.53;;
55134;SDS011;41031;44.750;11.308;2022-09-24T03:53:46;11.10;;;9.40;;
55134;SDS011;41031;44.750;11.308;2022-09-24T03:56:13;11.27;;;9.00;;
55134;SDS011;41031;44.750;11.308;2022-09-24T03:58:41;10.73;;;8.80;;
55134;SDS011;41031;44.750;11.308;2022-09-24T04:01:13;10.00;;;8.93;;
55134;SDS011;41031;44.750;11.308;2022-09-24T04:03:46;9.37;;;8.37;;
55134;SDS011;41031;44.750;11.308;2022-09-24T04:06:14;18.30;;;9.47;;
55134;SDS011;41031;44.750;11.308;2022-09-24T04:08:46;10.23;;;9.10;;
55134;SDS011;41031;44.750;11.308;2022-09-24T04:11:13;9.40;;;8.37;;
55134;SDS011;41031;44.750;11.308;2022-09-24T04:13:40;11.27;;;8.87;;
55134;SDS011;41031;44.750;11.308;2022-09-24T04:16:06;11.60;;;9.10;;
55134;SDS011;41031;44.750;11.308;2022-09-24T04:18:34;9.83;;;8.73;;
55134;SDS011;41031;44.750;11.308;2022-09-24T04:21:05;11.23;;;9.37;;
55134;SDS011;41031;44.750;11.308;2022-09-24T04:23:32;11.77;;;9.57;;
55134;SDS011;41031;44.750;11.308;2022-09-24T04:25:59;11.87;;;8.97;;
55134;SDS011;41031;44.750;11.308;2022-09-24T04:28:28;10.73;;;9.00;;
55134;SDS011;41031;44.750;11.308;2022-09-24T04:30:56;12.77;;;8.83;;
55134;SDS011;41031;44.750;11.308;2022-09-24T04:33:23;11.57;;;9.60;;
55134;SDS011;41031;44.750;11.308;2022-09-24T04:35:50;10.33;;;9.27;;
55134;SDS011;41031;44.750;11.308;2022-09-24T04:38:17;13.83;;;10.80;;
55134;SDS011;41031;44.750;11.308;2022-09-24T04:40:46;13.67;;;11.20;;
55134;SDS011;41031;44.750;11.308;2022-09-24T04:43:14;10.87;;;9.73;;
55134;SDS011;41031;44.750;11.308;2022-09-24T04:45:44;11.10;;;9.80;;
55134;SDS011;41031;44.750;11.308;2022-09-24T04:48:12;9.97;;;8.83;;
55134;SDS011;41031;44.750;11.308;2022-09-24T04:50:39;11.10;;;8.93;;
55134;SDS011;41031;44.750;11.308;2022-09-24T04:53:11;12.07;;;9.67;;
55134;SDS011;41031;44.750;11.308;2022-09-24T04:55:40;10.70;;;9.60;;
55134;SDS011;41031;44.750;11.308;2022-09-24T04:58:07;11.53;;;8.97;;
55134;SDS011;41031;44.750;11.308;2022-09-24T05:00:34;11.13;;;7.77;;
55134;SDS011;41031;44.750;11.308;2022-09-24T05:03:02;14.30;;;9.37;;
55134;SDS011;41031;44.750;11.308;2022-09-24T05:05:30;13.73;;;8.47;;
55134;SDS011;41031;44.750;11.308;2022-09-24T05:07:58;10.70;;;9.53;;
55134;SDS011;41031;44.750;11.308;2022-09-24T05:10:27;11.93;;;8.90;;
55134;SDS011;41031;44.750;11.308;2022-09-24T05:12:57;9.93;;;8.93;;
55134;SDS011;41031;44.750;11.308;2022-09-24T05:15:24;10.87;;;9.77;;
55134;SDS011;41031;44.750;11.308;2022-09-24T05:17:51;11.00;;;9.57;;
55134;SDS011;41031;44.750;11.308;2022-09-24T05:20:18;9.30;;;8.33;;
55134;SDS011;41031;44.750;11.308;2022-09-24T05:22:46;14.03;;;9.73;;
55134;SDS011;41031;44.750;11.308;2022-09-24T05:25:18;9.73;;;8.60;;
55134;SDS011;41031;44.750;11.308;2022-09-24T05:27:47;9.37;;;8.37;;
55134;SDS011;41031;44.750;11.308;2022-09-24T05:30:22;10.80;;;8.67;;
55134;SDS011;41031;44.750;11.308;2022-09-24T05:32:50;9.90;;;8.90;;
55134;SDS011;41031;44.750;11.308;2022-09-24T05:35:19;13.00;;;8.30;;
55134;SDS011;41031;44.750;11.308;2022-09-24T05:37:47;9.30;;;8.40;;
55134;SDS011;41031;44.750;11.308;2022-09-24T05:40:19;9.27;;;8.23;;
55134;SDS011;41031;44.750;11.308;2022-09-24T05:43:22;9.17;;;7.97;;
55134;SDS011;41031;44.750;11.308;2022-09-24T05:45:53;8.80;;;8.00;;
55134;SDS011;41031;44.750;11.308;2022-09-24T05:48:20;10.47;;;8.33;;
55134;SDS011;41031;44.750;11.308;2022-09-24T05:50:46;8.90;;;7.37;;
55134;SDS011;41031;44.750;11.308;2022-09-24T05:53:13;8.67;;;7.40;;
55134;SDS011;41031;44.750;11.308;2022-09-24T05:55:41;8.67;;;7.87;;
55134;SDS011;41031;44.750;11.308;2022-09-24T05:58:09;7.90;;;6.70;;
55134;SDS011;41031;44.750;11.308;2022-09-24T06:00:36;8.87;;;7.13;;
55134;SDS011;41031;44.750;11.308;2022-09-24T06:03:05;8.67;;;6.47;;
55134;SDS011;41031;44.750;11.308;2022-09-24T06:05:36;8.10;;;7.03;;
55134;SDS011;41031;44.750;11.308;2022-09-24T06:08:03;10.37;;;7.67;;
55134;SDS011;41031;44.750;11.308;2022-09-24T06:10:31;9.33;;;6.37;;
55134;SDS011;41031;44.750;11.308;2022-09-24T06:12:58;11.07;;;6.13;;
55134;SDS011;41031;44.750;11.308;2022-09-24T06:15:25;7.07;;;5.97;;
55134;SDS011;41031;44.750;11.308;2022-09-24T06:17:53;8.87;;;6.07;;
55134;SDS011;41031;44.750;11.308;2022-09-24T06:20:20;6.43;;;5.80;;
55134;SDS011;41031;44.750;11.308;2022-09-24T06:22:48;6.77;;;6.13;;
55134;SDS011;41031;44.750;11.308;2022-09-24T06:25:15;7.27;;;5.33;;
55134;SDS011;41031;44.750;11.308;2022-09-24T06:27:44;6.30;;;5.70;;
55134;SDS011;41031;44.750;11.308;2022-09-24T06:30:10;6.83;;;6.13;;
55134;SDS011;41031;44.750;11.308;2022-09-24T06:32:38;7.23;;;5.40;;
55134;SDS011;41031;44.750;11.308;2022-09-24T06:35:05;9.93;;;5.77;;
55134;SDS011;41031;44.750;11.308;2022-09-24T06:37:32;5.77;;;5.17;;
55134;SDS011;41031;44.750;11.308;2022-09-24T06:39:59;11.67;;;5.90;;
55134;SDS011;41031;44.750;11.308;2022-09-24T06:42:26;5.77;;;5.00;;
55134;SDS011;41031;44.750;11.308;2022-09-24T06:44:54;6.30;;;5.60;;
55134;SDS011;41031;44.750;11.308;2022-09-24T06:47:21;7.17;;;6.23;;
55134;SDS011;41031;44.750;11.308;2022-09-24T06:49:49;5.80;;;5.27;;
55134;SDS011;41031;44.750;11.308;2022-09-24T06:52:16;9.43;;;7.10;;
55134;SDS011;41031;44.750;11.308;2022-09-24T06:54:43;11.63;;;7.13;;
55134;SDS011;41031;44.750;11.308;2022-09-24T06:57:10;12.60;;;7.17;;
55134;SDS011;41031;44.750;11.308;2022-09-24T06:59:37;8.67;;;5.83;;
55134;SDS011;41031;44.750;11.308;2022-09-24T07:02:04;9.63;;;6.67;;
55134;SDS011;41031;44.750;11.308;2022-09-24T07:04:31;11.10;;;7.50;;
55134;SDS011;41031;44.750;11.308;2022-09-24T07:06:58;9.17;;;8.20;;
55134;SDS011;41031;44.750;11.308;2022-09-24T07:09:44;9.93;;;8.30;;
55134;SDS011;41031;44.750;11.308;2022-09-24T07:12:11;8.90;;;8.00;;
55134;SDS011;41031;44.750;11.308;2022-09-24T07:14:38;10.23;;;9.23;;
55134;SDS011;41031;44.750;11.308;2022-09-24T07:17:05;11.10;;;10.00;;
55134;SDS011;41031;44.750;11.308;2022-09-24T07:19:32;16.80;;;15.27;;
55134;SDS011;41031;44.750;11.308;2022-09-24T07:21:59;16.23;;;14.63;;
55134;SDS011;41031;44.750;11.308;2022-09-24T07:24:26;12.63;;;7.73;;
55134;SDS011;41031;44.750;11.308;2022-09-24T07:26:53;9.60;;;7.77;;
55134;SDS011;41031;44.750;11.308;2022-09-24T07:29:20;7.57;;;6.87;;
55134;SDS011;41031;44.750;11.308;2022-09-24T07:31:48;9.00;;;7.87;;
55134;SDS011;41031;44.750;11.308;2022-09-24T07:34:15;7.83;;;5.93;;
55134;SDS011;41031;44.750;11.308;2022-09-24T07:36:42;6.90;;;6.20;;
55134;SDS011;41031;44.750;11.308;2022-09-24T07:39:09;7.77;;;6.70;;
55134;SDS011;41031;44.750;11.308;2022-09-24T07:41:36;9.20;;;8.07;;
55134;SDS011;41031;44.750;11.308;2022-09-24T07:44:08;9.23;;;8.33;;
55134;SDS011;41031;44.750;11.308;2022-09-24T07:46:35;10.03;;;8.53;;
55134;SDS011;41031;44.750;11.308;2022-09-24T07:49:02;13.53;;;11.27;;
55134;SDS011;41031;44.750;11.308;2022-09-24T07:51:29;16.50;;;11.33;;
55134;SDS011;41031;44.750;11.308;2022-09-24T07:53:57;16.73;;;12.23;;
55134;SDS011;41031;44.750;11.308;2022-09-24T07:56:24;14.33;;;12.83;;
55134;SDS011;41031;44.750;11.308;2022-09-24T07:58:51;17.30;;;12.37;;
55134;SDS011;41031;44.750;11.308;2022-09-24T08:01:19;14.27;;;12.67;;
55134;SDS011;41031;44.750;11.308;2022-09-24T08:03:46;13.03;;;11.73;;
55134;SDS011;41031;44.750;11.308;2022-09-24T08:06:13;13.17;;;11.87;;
55134;SDS011;41031;44.750;11.308;2022-09-24T08:08:40;14.93;;;10.47;;
55134;SDS011;41031;44.750;11.308;2022-09-24T08:11:10;12.10;;;10.80;;
55134;SDS011;41031;44.750;11.308;2022-09-24T08:13:38;13.03;;;10.43;;
55134;SDS011;41031;44.750;11.308;2022-09-24T08:16:06;11.33;;;10.13;;
55134;SDS011;41031;44.750;11.308;2022-09-24T08:18:33;12.00;;;10.80;;
55134;SDS011;41031;44.750;11.308;2022-09-24T08:21:07;12.27;;;11.03;;
55134;SDS011;41031;44.750;11.308;2022-09-24T08:23:37;11.63;;;10.27;;
55134;SDS011;41031;44.750;11.308;2022-09-24T08:26:08;11.60;;;10.40;;
55134;SDS011;41031;44.750;11.308;2022-09-24T08:28:36;13.47;;;11.07;;
55134;SDS011;41031;44.750;11.308;2022-09-24T08:31:06;11.57;;;10.40;;
55134;SDS011;41031;44.750;11.308;2022-09-24T08:33:34;11.67;;;8.67;;
55134;SDS011;41031;44.750;11.308;2022-09-24T08:36:03;11.07;;;8.53;;
55134;SDS011;41031;44.750;11.308;2022-09-24T08:38:32;10.00;;;8.67;;
55134;SDS011;41031;44.750;11.308;2022-09-24T08:49:30;9.43;;;7.40;;
55134;SDS011;41031;44.750;11.308;2022-09-24T08:52:27;7.73;;;6.37;;
55134;SDS011;41031;44.750;11.308;2022-09-24T08:55:03;7.50;;;5.53;;
55134;SDS011;41031;44.750;11.308;2022-09-24T08:57:38;7.03;;;6.13;;
55134;SDS011;41031;44.750;11.308;2022-09-24T09:00:13;6.10;;;5.17;;
55134;SDS011;41031;44.750;11.308;2022-09-24T09:02:42;9.30;;;5.17;;
55134;SDS011;41031;44.750;11.308;2022-09-24T09:05:50;4.83;;;4.00;;
55134;SDS011;41031;44.750;11.308;2022-09-24T09:08:27;5.97;;;4.10;;
55134;SDS011;41031;44.750;11.308;2022-09-24T09:11:22;5.27;;;3.43;;
55134;SDS011;41031;44.750;11.308;2022-09-24T09:13:55;5.53;;;3.47;;
55134;SDS011;41031;44.750;11.308;2022-09-24T09:16:33;5.77;;;3.30;;
55134;SDS011;41031;44.750;11.308;2022-09-24T09:19:11;4.67;;;2.40;;
55134;SDS011;41031;44.750;11.308;2022-09-24T09:21:41;5.40;;;3.20;;
55134;SDS011;41031;44.750;11.308;2022-09-24T09:24:19;4.03;;;3.07;;
55134;SDS011;41031;44.750;11.308;2022-09-24T09:26:56;3.43;;;2.20;;
55134;SDS011;41031;44.750;11.308;2022-09-24T09:29:24;7.70;;;2.10;;
55134;SDS011;41031;44.750;11.308;2022-09-24T09:34:39;4.53;;;2.27;;
55134;SDS011;41031;44.750;11.308;2022-09-24T09:43:01;17.27;;;3.50;;
55134;SDS011;41031;44.750;11.308;2022-09-24T09:45:39;2.97;;;2.33;;
55134;SDS011;41031;44.750;11.308;2022-09-24T09:48:28;5.20;;;2.83;;
55134;SDS011;41031;44.750;11.308;2022-09-24T09:51:04;3.20;;;1.93;;
55134;SDS011;41031;44.750;11.308;2022-09-24T09:53:36;20.90;;;8.77;;
55134;SDS011;41031;44.750;11.308;2022-09-24T09:56:05;6.07;;;2.30;;
55134;SDS011;41031;44.750;11.308;2022-09-24T09:58:33;4.30;;;2.60;;
55134;SDS011;41031;44.750;11.308;2022-09-24T10:01:12;5.60;;;2.53;;
55134;SDS011;41031;44.750;11.308;2022-09-24T10:09:05;3.67;;;2.17;;
55134;SDS011;41031;44.750;11.308;2022-09-24T10:11:38;5.70;;;2.20;;
55134;SDS011;41031;44.750;11.308;2022-09-24T10:14:11;4.20;;;2.07;;
55134;SDS011;41031;44.750;11.308;2022-09-24T10:16:41;6.03;;;2.77;;
55134;SDS011;41031;44.750;11.308;2022-09-24T10:19:12;3.23;;;2.13;;
55134;SDS011;41031;44.750;11.308;2022-09-24T10:21:51;4.67;;;2.40;;
55134;SDS011;41031;44.750;11.308;2022-09-24T10:24:21;4.40;;;2.20;;
55134;SDS011;41031;44.750;11.308;2022-09-24T10:26:50;2.87;;;2.33;;
55134;SDS011;41031;44.750;11.308;2022-09-24T10:29:19;5.97;;;2.00;;
55134;SDS011;41031;44.750;11.308;2022-09-24T10:32:16;3.93;;;2.23;;
55134;SDS011;41031;44.750;11.308;2022-09-24T10:34:55;3.83;;;1.87;;
55134;SDS011;41031;44.750;11.308;2022-09-24T10:37:24;2.87;;;2.40;;
55134;SDS011;41031;44.750;11.308;2022-09-24T10:39:56;3.10;;;1.60;;
55134;SDS011;41031;44.750;11.308;2022-09-24T10:42:43;4.70;;;2.10;;
55134;SDS011;41031;44.750;11.308;2022-09-24T10:45:19;4.23;;;1.60;;
55134;SDS011;41031;44.750;11.308;2022-09-24T10:50:50;3.10;;;1.60;;
55134;SDS011;41031;44.750;11.308;2022-09-24T10:53:37;4.47;;;1.60;;
55134;SDS011;41031;44.750;11.308;2022-09-24T11:09:57;3.80;;;1.93;;
55134;SDS011;41031;44.750;11.308;2022-09-24T11:18:15;2.87;;;1.30;;
55134;SDS011;41031;44.750;11.308;2022-09-24T11:20:58;2.13;;;1.50;;
55134;SDS011;41031;44.750;11.308;2022-09-24T11:29:20;5.20;;;2.00;;
55134;SDS011;41031;44.750;11.308;2022-09-24T11:32:05;6.73;;;1.50;;
55134;SDS011;41031;44.750;11.308;2022-09-24T11:37:19;2.40;;;1.33;;
55134;SDS011;41031;44.750;11.308;2022-09-24T11:40:03;4.53;;;1.93;;
55134;SDS011;41031;44.750;11.308;2022-09-24T11:52:23;10.90;;;1.30;;
55134;SDS011;41031;44.750;11.308;2022-09-24T11:57:32;2.57;;;1.63;;
55134;SDS011;41031;44.750;11.308;2022-09-24T12:00:04;3.80;;;1.67;;
55134;SDS011;41031;44.750;11.308;2022-09-24T12:02:49;2.53;;;1.40;;
55134;SDS011;41031;44.750;11.308;2022-09-24T12:05:49;2.13;;;1.33;;
55134;SDS011;41031;44.750;11.308;2022-09-24T12:08:24;1.90;;;1.40;;
55134;SDS011;41031;44.750;11.308;2022-09-24T12:13:30;5.13;;;1.50;;
55134;SDS011;41031;44.750;11.308;2022-09-24T12:16:02;7.40;;;3.13;;
55134;SDS011;41031;44.750;11.308;2022-09-24T12:21:53;6.03;;;1.93;;
55134;SDS011;41031;44.750;11.308;2022-09-24T12:26:52;2.47;;;1.40;;
55134;SDS011;41031;44.750;11.308;2022-09-24T12:38:18;2.67;;;1.50;;
55134;SDS011;41031;44.750;11.308;2022-09-24T12:45:55;2.53;;;1.63;;
55134;SDS011;41031;44.750;11.308;2022-09-24T12:48:27;5.47;;;2.40;;
55134;SDS011;41031;44.750;11.308;2022-09-24T12:51:00;5.03;;;2.23;;
55134;SDS011;41031;44.750;11.308;2022-09-24T12:53:33;7.00;;;2.30;;
55134;SDS011;41031;44.750;11.308;2022-09-24T12:56:03;4.67;;;2.30;;
55134;SDS011;41031;44.750;11.308;2022-09-24T12:58:38;3.57;;;1.97;;
55134;SDS011;41031;44.750;11.308;2022-09-24T13:01:24;7.07;;;1.87;;
55134;SDS011;41031;44.750;11.308;2022-09-24T13:04:04;5.17;;;1.60;;
55134;SDS011;41031;44.750;11.308;2022-09-24T13:06:37;5.37;;;1.50;;
55134;SDS011;41031;44.750;11.308;2022-09-24T13:09:23;3.17;;;1.57;;
55134;SDS011;41031;44.750;11.308;2022-09-24T13:15:16;3.70;;;1.47;;
55134;SDS011;41031;44.750;11.308;2022-09-24T13:18:00;3.13;;;1.50;;
55134;SDS011;41031;44.750;11.308;2022-09-24T13:20:37;5.30;;;2.10;;
55134;SDS011;41031;44.750;11.308;2022-09-24T13:25:58;3.10;;;1.93;;
55134;SDS011;41031;44.750;11.308;2022-09-24T13:28:37;3.80;;;1.70;;
55134;SDS011;41031;44.750;11.308;2022-09-24T13:41:47;1.83;;;1.60;;
55134;SDS011;41031;44.750;11.308;2022-09-24T13:44:33;2.47;;;2.10;;
55134;SDS011;41031;44.750;11.308;2022-09-24T13:55:47;4.60;;;1.57;;
55134;SDS011;41031;44.750;11.308;2022-09-24T13:58:25;2.30;;;1.83;;
55134;SDS011;41031;44.750;11.308;2022-09-24T14:00:53;2.67;;;1.70;;
55134;SDS011;41031;44.750;11.308;2022-09-24T14:03:27;2.57;;;1.33;;
55134;SDS011;41031;44.750;11.308;2022-09-24T14:05:59;3.07;;;1.37;;
55134;SDS011;41031;44.750;11.308;2022-09-24T14:08:27;2.80;;;1.40;;
55134;SDS011;41031;44.750;11.308;2022-09-24T14:11:04;3.60;;;1.73;;
55134;SDS011;41031;44.750;11.308;2022-09-24T14:13:37;1.53;;;1.43;;
55134;SDS011;41031;44.750;11.308;2022-09-24T14:16:14;2.60;;;1.40;;
55134;SDS011;41031;44.750;11.308;2022-09-24T14:18:45;2.70;;;1.67;;
55134;SDS011;41031;44.750;11.308;2022-09-24T14:21:15;2.47;;;1.40;;
55134;SDS011;41031;44.750;11.308;2022-09-24T14:23:55;4.17;;;1.63;;
55134;SDS011;41031;44.750;11.308;2022-09-24T14:26:40;8.07;;;1.70;;
55134;SDS011;41031;44.750;11.308;2022-09-24T14:29:23;2.03;;;1.40;;
55134;SDS011;41031;44.750;11.308;2022-09-24T14:32:00;2.33;;;1.30;;
55134;SDS011;41031;44.750;11.308;2022-09-24T14:34:32;2.83;;;1.47;;
55134;SDS011;41031;44.750;11.308;2022-09-24T14:37:47;2.43;;;1.47;;
55134;SDS011;41031;44.750;11.308;2022-09-24T14:40:04;1.40;;;1.30;;
55134;SDS011;41031;44.750;11.308;2022-09-24T14:42:38;3.20;;;1.30;;
55134;SDS011;41031;44.750;11.308;2022-09-24T14:45:09;2.07;;;1.70;;
55134;SDS011;41031;44.750;11.308;2022-09-24T14:47:44;1.80;;;1.43;;
55134;SDS011;41031;44.750;11.308;2022-09-24T14:50:24;2.27;;;1.60;;
55134;SDS011;41031;44.750;11.308;2022-09-24T14:52:55;2.90;;;1.93;;
55134;SDS011;41031;44.750;11.308;2022-09-24T14:55:34;5.60;;;3.10;;
55134;SDS011;41031;44.750;11.308;2022-09-24T14:58:03;11.50;;;6.37;;
55134;SDS011;41031;44.750;11.308;2022-09-24T15:00:45;12.87;;;9.73;;
55134;SDS011;41031;44.750;11.308;2022-09-24T15:03:15;15.57;;;11.07;;
55134;SDS011;41031;44.750;11.308;2022-09-24T15:05:47;13.17;;;9.03;;
55134;SDS011;41031;44.750;11.308;2022-09-24T15:10:51;10.13;;;6.43;;
55134;SDS011;41031;44.750;11.308;2022-09-24T15:13:24;8.53;;;5.30;;
55134;SDS011;41031;44.750;11.308;2022-09-24T15:18:41;5.03;;;3.00;;
55134;SDS011;41031;44.750;11.308;2022-09-24T15:21:08;4.33;;;2.60;;
55134;SDS011;41031;44.750;11.308;2022-09-24T15:23:36;3.93;;;2.33;;
55134;SDS011;41031;44.750;11.308;2022-09-24T15:26:03;3.83;;;1.80;;
55134;SDS011;41031;44.750;11.308;2022-09-24T15:28:30;5.43;;;2.00;;
55134;SDS011;41031;44.750;11.308;2022-09-24T15:30:57;2.53;;;1.90;;
55134;SDS011;41031;44.750;11.308;2022-09-24T15:33:24;2.43;;;2.13;;
55134;SDS011;41031;44.750;11.308;2022-09-24T15:35:51;4.57;;;2.30;;
55134;SDS011;41031;44.750;11.308;2022-09-24T15:38:19;6.17;;;2.20;;
55134;SDS011;41031;44.750;11.308;2022-09-24T15:40:46;2.13;;;1.90;;
55134;SDS011;41031;44.750;11.308;2022-09-24T15:43:21;5.10;;;2.60;;
55134;SDS011;41031;44.750;11.308;2022-09-24T15:45:49;2.20;;;1.90;;
55134;SDS011;41031;44.750;11.308;2022-09-24T15:48:16;2.43;;;2.23;;
55134;SDS011;41031;44.750;11.308;2022-09-24T15:50:44;2.33;;;1.87;;
55134;SDS011;41031;44.750;11.308;2022-09-24T15:53:30;2.90;;;2.33;;
55134;SDS011;41031;44.750;11.308;2022-09-24T15:55:59;5.37;;;2.13;;
55134;SDS011;41031;44.750;11.308;2022-09-24T15:58:28;5.13;;;2.53;;
55134;SDS011;41031;44.750;11.308;2022-09-24T16:00:55;7.37;;;2.57;;
55134;SDS011;41031;44.750;11.308;2022-09-24T16:03:23;4.10;;;2.07;;
55134;SDS011;41031;44.750;11.308;2022-09-24T16:05:52;3.70;;;2.17;;
55134;SDS011;41031;44.750;11.308;2022-09-24T16:08:19;5.57;;;2.07;;
55134;SDS011;41031;44.750;11.308;2022-09-24T16:10:47;3.40;;;2.37;;
55134;SDS011;41031;44.750;11.308;2022-09-24T16:13:15;3.87;;;2.00;;
55134;SDS011;41031;44.750;11.308;2022-09-24T16:15:43;4.73;;;2.17;;
55134;SDS011;41031;44.750;11.308;2022-09-24T16:18:14;3.97;;;2.00;;
55134;SDS011;41031;44.750;11.308;2022-09-24T16:20:43;4.10;;;1.83;;
55134;SDS011;41031;44.750;11.308;2022-09-24T16:23:12;3.00;;;1.73;;
55134;SDS011;41031;44.750;11.308;2022-09-24T16:25:52;2.93;;;1.87;;
55134;SDS011;41031;44.750;11.308;2022-09-24T16:28:21;5.20;;;1.70;;
55134;SDS011;41031;44.750;11.308;2022-09-24T16:30:49;2.03;;;1.83;;
55134;SDS011;41031;44.750;11.308;2022-09-24T16:33:16;4.43;;;1.90;;
55134;SDS011;41031;44.750;11.308;2022-09-24T16:35:43;2.67;;;1.77;;
55134;SDS011;41031;44.750;11.308;2022-09-24T16:38:10;2.10;;;1.90;;
55134;SDS011;41031;44.750;11.308;2022-09-24T16:40:37;3.33;;;1.83;;
55134;SDS011;41031;44.750;11.308;2022-09-24T16:43:05;2.10;;;1.93;;
55134;SDS011;41031;44.750;11.308;2022-09-24T16:45:32;5.10;;;2.40;;
55134;SDS011;41031;44.750;11.308;2022-09-24T16:47:59;4.87;;;2.03;;
55134;SDS011;41031;44.750;11.308;2022-09-24T16:50:26;2.87;;;2.03;;
55134;SDS011;41031;44.750;11.308;2022-09-24T16:52:53;2.60;;;2.40;;
55134;SDS011;41031;44.750;11.308;2022-09-24T16:55:21;4.60;;;1.87;;
55134;SDS011;41031;44.750;11.308;2022-09-24T16:57:51;2.87;;;2.37;;
55134;SDS011;41031;44.750;11.308;2022-09-24T17:00:18;6.57;;;2.57;;
55134;SDS011;41031;44.750;11.308;2022-09-24T17:02:46;3.17;;;2.47;;
55134;SDS011;41031;44.750;11.308;2022-09-24T17:05:13;6.50;;;3.10;;
55134;SDS011;41031;44.750;11.308;2022-09-24T17:07:40;3.50;;;2.97;;
55134;SDS011;41031;44.750;11.308;2022-09-24T17:10:08;5.57;;;2.97;;
55134;SDS011;41031;44.750;11.308;2022-09-24T17:12:40;6.20;;;3.87;;
55134;SDS011;41031;44.750;11.308;2022-09-24T17:15:09;4.27;;;3.43;;